Data Viewer
| City | State | Eastern Time | Source | Temp | DewPt | RH | BP | 5 Min Precip | Wind Speed | Wind Dir | 5 Min Wind Max | 5 Min Wind Max Dir |
|---|---|---|---|---|---|---|---|---|---|---|---|---|
| Piscataway 1 | NJ | 2026-05-07 09:05 | NJDOT | 52 | 41 | 84 | 0 | |||||
| Piscataway 1 | NJ | 2026-05-08 01:40 | NJDOT | 51 | 47 | 86 | 1 | |||||
| Piscataway 1 | NJ | 2026-05-08 00:25 | NJDOT | 49 | 46 | 89 | 0 | |||||
| Piscataway 1 | NJ | 2026-05-08 00:30 | NJDOT | 49 | 46 | 89 | 0 | |||||
| Piscataway 1 | NJ | 2026-05-08 00:35 | NJDOT | 49 | 46 | 89 | 0 | |||||
| Piscataway 1 | NJ | 2026-05-08 01:00 | NJDOT | 51 | 47 | 86 | 0 | |||||
| Piscataway 1 | NJ | 2026-05-08 01:05 | NJDOT | 51 | 47 | 86 | 0 | |||||
| Piscataway 1 | NJ | 2026-05-08 01:10 | NJDOT | 50 | 46 | 87 | 0 | |||||
| Piscataway 1 | NJ | 2026-05-08 01:15 | NJDOT | 50 | 46 | 88 | 0 | |||||
| Piscataway 1 | NJ | 2026-05-08 01:20 | NJDOT | 50 | 47 | 89 | 0 | |||||
| Piscataway 1 | NJ | 2026-05-08 01:25 | NJDOT | 50 | 47 | 89 | 0 | |||||
| Piscataway 1 | NJ | 2026-05-08 01:30 | NJDOT | 50 | 47 | 89 | 0 | |||||
| Piscataway 1 | NJ | 2026-05-08 01:35 | NJDOT | 50 | 47 | 88 | 0 | |||||
| Piscataway 1 | NJ | 2026-05-08 01:45 | NJDOT | 51 | 46 | 84 | 1 | |||||
| Piscataway 1 | NJ | 2026-05-08 00:15 | NJDOT | 49 | 45 | 88 | 0 | |||||
| Piscataway 1 | NJ | 2026-05-08 01:50 | NJDOT | 51 | 46 | 84 | 0 | |||||
| Piscataway 1 | NJ | 2026-05-08 02:00 | NJDOT | 52 | 44 | 73 | 10 | |||||
| Piscataway 1 | NJ | 2026-05-08 02:05 | NJDOT | 53 | 43 | 69 | 7 | |||||
| Piscataway 1 | NJ | 2026-05-08 02:10 | NJDOT | 52 | 42 | 70 | 7 | |||||
| Piscataway 1 | NJ | 2026-05-08 02:15 | NJDOT | 52 | 42 | 67 | 7 | |||||
| Piscataway 1 | NJ | 2026-05-08 02:20 | NJDOT | 52 | 42 | 69 | 7 | |||||
| Piscataway 1 | NJ | 2026-05-08 02:25 | NJDOT | 52 | 41 | 67 | 8 | |||||
| Piscataway 1 | NJ | 2026-05-08 02:30 | NJDOT | 51 | 41 | 67 | 9 | |||||
| Piscataway 1 | NJ | 2026-05-08 02:35 | NJDOT | 52 | 40 | 65 | 9 | |||||
| Piscataway 1 | NJ | 2026-05-08 02:40 | NJDOT | 51 | 40 | 66 | 9 | |||||
| Piscataway 1 | NJ | 2026-05-08 02:45 | NJDOT | 51 | 40 | 66 | 10 | |||||
| Piscataway 1 | NJ | 2026-05-08 02:50 | NJDOT | 52 | 40 | 64 | 10 | |||||
| Piscataway 1 | NJ | 2026-05-08 00:20 | NJDOT | 48 | 46 | 89 | 0 | |||||
| Piscataway 1 | NJ | 2026-05-08 00:10 | NJDOT | 49 | 46 | 87 | 0 | |||||
| Piscataway 1 | NJ | 2026-05-08 03:05 | NJDOT | 50 | 39 | 67 | 11 | |||||
| Piscataway 1 | NJ | 2026-05-07 22:45 | NJDOT | 53 | 44 | 71 | 0 | |||||
| Piscataway 1 | NJ | 2026-05-07 20:45 | NJDOT | 55 | 39 | 55 | 0 | |||||
| Piscataway 1 | NJ | 2026-05-07 20:50 | NJDOT | 54 | 38 | 55 | 0 | |||||
| Piscataway 1 | NJ | 2026-05-07 21:00 | NJDOT | 53 | 39 | 58 | 0 | |||||
| Piscataway 1 | NJ | 2026-05-07 21:05 | NJDOT | 53 | 40 | 61 | 0 | |||||
| Piscataway 1 | NJ | 2026-05-07 21:50 | NJDOT | 51 | 40 | 65 | 0 | |||||
| Piscataway 1 | NJ | 2026-05-07 22:05 | NJDOT | 51 | 41 | 67 | 0 | |||||
| Piscataway 1 | NJ | 2026-05-07 22:15 | NJDOT | 51 | 41 | 69 | 0 | |||||
| Piscataway 1 | NJ | 2026-05-07 22:20 | NJDOT | 52 | 42 | 70 | 0 | |||||
| Piscataway 1 | NJ | 2026-05-07 22:25 | NJDOT | 52 | 43 | 70 | 0 | |||||
| Piscataway 1 | NJ | 2026-05-07 22:30 | NJDOT | 52 | 43 | 71 | 0 | |||||
| Piscataway 1 | NJ | 2026-05-07 22:35 | NJDOT | 53 | 44 | 72 | 0 | |||||
| Piscataway 1 | NJ | 2026-05-07 22:40 | NJDOT | 53 | 44 | 71 | 0 | |||||
| Piscataway 1 | NJ | 2026-05-07 22:50 | NJDOT | 53 | 44 | 71 | 0 | |||||
| Piscataway 1 | NJ | 2026-05-08 00:05 | NJDOT | 49 | 45 | 86 | 0 | |||||
| Piscataway 1 | NJ | 2026-05-07 23:00 | NJDOT | 53 | 44 | 73 | 0 | |||||
| Piscataway 1 | NJ | 2026-05-07 23:05 | NJDOT | 52 | 44 | 74 | 0 | |||||
| Piscataway 1 | NJ | 2026-05-07 23:10 | NJDOT | 52 | 45 | 77 | 0 | |||||
| Piscataway 1 | NJ | 2026-05-07 23:15 | NJDOT | 51 | 45 | 79 | 0 | |||||
| Piscataway 1 | NJ | 2026-05-07 23:20 | NJDOT | 51 | 45 | 80 | 0 | |||||
| Piscataway 1 | NJ | 2026-05-07 23:25 | NJDOT | 51 | 45 | 82 | 0 | |||||
| Piscataway 1 | NJ | 2026-05-07 23:30 | NJDOT | 50 | 45 | 83 | 0 | |||||
| Piscataway 1 | NJ | 2026-05-07 23:35 | NJDOT | 50 | 45 | 83 | 0 | |||||
| Piscataway 1 | NJ | 2026-05-07 23:40 | NJDOT | 50 | 45 | 84 | 0 | |||||
| Piscataway 1 | NJ | 2026-05-07 23:45 | NJDOT | 50 | 45 | 84 | 0 | |||||
| Piscataway 1 | NJ | 2026-05-07 23:50 | NJDOT | 50 | 46 | 85 | 0 | |||||
| Piscataway 1 | NJ | 2026-05-08 00:00 | NJDOT | 50 | 45 | 85 | 0 | |||||
| Piscataway 1 | NJ | 2026-05-08 03:00 | NJDOT | 50 | 39 | 66 | 11 | |||||
| Piscataway 1 | NJ | 2026-05-08 03:10 | NJDOT | 50 | 39 | 66 | 7 | |||||
| Piscataway 1 | NJ | 2026-05-07 20:35 | NJDOT | 55 | 38 | 53 | 0 | |||||
| Piscataway 1 | NJ | 2026-05-08 07:40 | NJDOT | 48 | 42 | 78 | 0 | |||||
| Piscataway 1 | NJ | 2026-05-08 06:10 | NJDOT | 44 | 40 | 87 | 0 | |||||
| Piscataway 1 | NJ | 2026-05-08 06:15 | NJDOT | 44 | 40 | 87 | 0 | |||||
| Piscataway 1 | NJ | 2026-05-08 06:20 | NJDOT | 44 | 40 | 88 | 0 | |||||
| Piscataway 1 | NJ | 2026-05-08 06:25 | NJDOT | 44 | 40 | 88 | 0 | |||||
| Piscataway 1 | NJ | 2026-05-08 06:30 | NJDOT | 44 | 40 | 87 | 0 | |||||
| Piscataway 1 | NJ | 2026-05-08 06:35 | NJDOT | 44 | 40 | 86 | 0 | |||||
| Piscataway 1 | NJ | 2026-05-08 07:00 | NJDOT | 45 | 41 | 84 | 0 | |||||
| Piscataway 1 | NJ | 2026-05-08 07:05 | NJDOT | 46 | 41 | 83 | 0 | |||||
| Piscataway 1 | NJ | 2026-05-08 07:10 | NJDOT | 46 | 41 | 83 | 0 | |||||
| Piscataway 1 | NJ | 2026-05-08 07:20 | NJDOT | 47 | 41 | 79 | 0 | |||||
| Piscataway 1 | NJ | 2026-05-08 07:25 | NJDOT | 47 | 42 | 80 | 0 | |||||
| Piscataway 1 | NJ | 2026-05-08 07:35 | NJDOT | 48 | 41 | 78 | 0 | |||||
| Piscataway 1 | NJ | 2026-05-08 07:45 | NJDOT | 49 | 42 | 76 | 0 | |||||
| Piscataway 1 | NJ | 2026-05-08 06:00 | NJDOT | 44 | 40 | 87 | 0 | |||||
| Piscataway 1 | NJ | 2026-05-08 07:50 | NJDOT | 49 | 42 | 75 | 0 | |||||
| Piscataway 1 | NJ | 2026-05-08 08:00 | NJDOT | 49 | 41 | 72 | 0 | |||||
| Piscataway 1 | NJ | 2026-05-08 08:05 | NJDOT | 50 | 41 | 70 | 0 | |||||
| Piscataway 1 | NJ | 2026-05-08 08:10 | NJDOT | 50 | 41 | 71 | 1 | |||||
| Piscataway 1 | NJ | 2026-05-08 08:15 | NJDOT | 50 | 41 | 69 | 1 | |||||
| Piscataway 1 | NJ | 2026-05-08 08:20 | NJDOT | 51 | 40 | 67 | 0 | |||||
| Piscataway 1 | NJ | 2026-05-08 08:25 | NJDOT | 51 | 40 | 67 | 0 | |||||
| Piscataway 1 | NJ | 2026-05-08 08:30 | NJDOT | 51 | 40 | 67 | 6 | |||||
| Piscataway 1 | NJ | 2026-05-08 08:35 | NJDOT | 51 | 40 | 66 | 6 | |||||
| Piscataway 1 | NJ | 2026-05-08 08:40 | NJDOT | 51 | 40 | 65 | 6 | |||||
| Piscataway 1 | NJ | 2026-05-08 08:45 | NJDOT | 51 | 40 | 65 | 4 | |||||
| Piscataway 1 | NJ | 2026-05-08 08:50 | NJDOT | 52 | 41 | 65 | 6 | |||||
| Piscataway 1 | NJ | 2026-05-08 06:05 | NJDOT | 44 | 40 | 87 | 0 | |||||
| Piscataway 1 | NJ | 2026-05-08 05:50 | NJDOT | 44 | 40 | 87 | 0 | |||||
| Piscataway 1 | NJ | 2026-05-08 03:15 | NJDOT | 50 | 39 | 65 | 7 | |||||
| Piscataway 1 | NJ | 2026-05-08 04:25 | NJDOT | 49 | 40 | 72 | 1 | |||||
| Piscataway 1 | NJ | 2026-05-08 03:20 | NJDOT | 50 | 39 | 67 | 4 | |||||
| Piscataway 1 | NJ | 2026-05-08 03:25 | NJDOT | 50 | 39 | 65 | 0 | |||||
| Piscataway 1 | NJ | 2026-05-08 03:30 | NJDOT | 50 | 39 | 67 | 3 | |||||
| Piscataway 1 | NJ | 2026-05-08 03:35 | NJDOT | 50 | 39 | 67 | 3 | |||||
| Piscataway 1 | NJ | 2026-05-08 03:40 | NJDOT | 50 | 39 | 67 | 0 | |||||
| Piscataway 1 | NJ | 2026-05-08 03:45 | NJDOT | 49 | 39 | 68 | 0 | |||||
| Piscataway 1 | NJ | 2026-05-08 03:50 | NJDOT | 49 | 39 | 69 | 0 | |||||
| Piscataway 1 | NJ | 2026-05-08 04:00 | NJDOT | 49 | 40 | 71 | 2 | |||||
| Piscataway 1 | NJ | 2026-05-08 04:05 | NJDOT | 49 | 40 | 71 | 2 | |||||
| Piscataway 1 | NJ | 2026-05-08 04:10 | NJDOT | 48 | 40 | 71 | 2 | |||||
| Piscataway 1 | NJ | 2026-05-08 04:15 | NJDOT | 48 | 40 | 73 | 1 | |||||
| Piscataway 1 | NJ | 2026-05-08 04:20 | NJDOT | 48 | 40 | 73 | 0 | |||||
| Piscataway 1 | NJ | 2026-05-08 04:30 | NJDOT | 48 | 40 | 72 | 1 | |||||
| Piscataway 1 | NJ | 2026-05-08 05:45 | NJDOT | 44 | 40 | 86 | 0 | |||||
| Piscataway 1 | NJ | 2026-05-08 04:35 | NJDOT | 48 | 40 | 74 | 0 | |||||
| Piscataway 1 | NJ | 2026-05-08 04:40 | NJDOT | 47 | 40 | 75 | 0 | |||||
| Piscataway 1 | NJ | 2026-05-08 04:45 | NJDOT | 47 | 39 | 75 | 0 | |||||
| Piscataway 1 | NJ | 2026-05-08 04:50 | NJDOT | 46 | 39 | 76 | 0 | |||||
| Piscataway 1 | NJ | 2026-05-08 05:00 | NJDOT | 46 | 40 | 79 | 0 | |||||
| Piscataway 1 | NJ | 2026-05-08 05:05 | NJDOT | 45 | 40 | 80 | 0 | |||||
| Piscataway 1 | NJ | 2026-05-08 05:10 | NJDOT | 45 | 39 | 81 | 0 | |||||
| Piscataway 1 | NJ | 2026-05-08 05:20 | NJDOT | 44 | 40 | 83 | 0 | |||||
| Piscataway 1 | NJ | 2026-05-08 05:25 | NJDOT | 44 | 40 | 84 | 0 | |||||
| Piscataway 1 | NJ | 2026-05-08 05:30 | NJDOT | 44 | 40 | 83 | 0 | |||||
| Piscataway 1 | NJ | 2026-05-08 05:35 | NJDOT | 44 | 40 | 85 | 0 | |||||
| Piscataway 1 | NJ | 2026-05-08 05:40 | NJDOT | 44 | 40 | 86 | 0 | |||||
| Piscataway 1 | NJ | 2026-05-07 20:40 | NJDOT | 55 | 39 | 55 | 0 | |||||
| Piscataway 1 | NJ | 2026-05-07 20:30 | NJDOT | 55 | 37 | 50 | 0 | |||||
| Piscataway 1 | NJ | 2026-05-07 09:10 | NJDOT | 52 | 41 | 78 | 0 | |||||
| Piscataway 1 | NJ | 2026-05-07 13:20 | NJDOT | 64 | 33 | 28 | 0 | |||||
| Piscataway 1 | NJ | 2026-05-07 12:00 | NJDOT | 62 | 35 | 35 | 0 | |||||
| Piscataway 1 | NJ | 2026-05-07 12:05 | NJDOT | 62 | 35 | 36 | 0 | |||||
| Piscataway 1 | NJ | 2026-05-07 12:10 | NJDOT | 63 | 33 | 32 | 0 | |||||
| Piscataway 1 | NJ | 2026-05-07 12:15 | NJDOT | 62 | 35 | 36 | 0 | |||||
| Piscataway 1 | NJ | 2026-05-07 12:20 | NJDOT | 62 | 36 | 37 | 0 | |||||
| Piscataway 1 | NJ | 2026-05-07 12:25 | NJDOT | 62 | 38 | 42 | 0 | |||||
| Piscataway 1 | NJ | 2026-05-07 12:30 | NJDOT | 62 | 34 | 33 | 0 | |||||
| Piscataway 1 | NJ | 2026-05-07 13:00 | NJDOT | 64 | 31 | 29 | 0 | |||||
| Piscataway 1 | NJ | 2026-05-07 13:05 | NJDOT | 64 | 33 | 38 | 0 | |||||
| Piscataway 1 | NJ | 2026-05-07 13:10 | NJDOT | 64 | 33 | 31 | 0 | |||||
| Piscataway 1 | NJ | 2026-05-07 13:15 | NJDOT | 64 | 33 | 30 | 0 | |||||
| Piscataway 1 | NJ | 2026-05-07 13:25 | NJDOT | 64 | 33 | 32 | 0 | |||||
| Piscataway 1 | NJ | 2026-05-07 11:45 | NJDOT | 62 | 32 | 32 | 0 | |||||
| Piscataway 1 | NJ | 2026-05-07 13:35 | NJDOT | 64 | 33 | 31 | 0 | |||||
| Piscataway 1 | NJ | 2026-05-07 13:40 | NJDOT | 64 | 31 | 29 | 0 | |||||
| Piscataway 1 | NJ | 2026-05-07 13:45 | NJDOT | 64 | 34 | 37 | 0 | |||||
| Piscataway 1 | NJ | 2026-05-07 13:50 | NJDOT | 65 | 33 | 30 | 0 | |||||
| Piscataway 1 | NJ | 2026-05-07 14:00 | NJDOT | 64 | 34 | 32 | 0 | |||||
| Piscataway 1 | NJ | 2026-05-07 14:05 | NJDOT | 65 | 31 | 28 | 0 | |||||
| Piscataway 1 | NJ | 2026-05-07 14:10 | NJDOT | 65 | 31 | 28 | 0 | |||||
| Piscataway 1 | NJ | 2026-05-07 14:15 | NJDOT | 64 | 32 | 29 | 0 | |||||
| Piscataway 1 | NJ | 2026-05-07 14:20 | NJDOT | 66 | 33 | 28 | 0 | |||||
| Piscataway 1 | NJ | 2026-05-07 14:25 | NJDOT | 67 | 35 | 31 | 0 | |||||
| Piscataway 1 | NJ | 2026-05-07 14:30 | NJDOT | 65 | 33 | 28 | 0 | |||||
| Piscataway 1 | NJ | 2026-05-07 14:35 | NJDOT | 64 | 33 | 29 | 0 | |||||
| Piscataway 1 | NJ | 2026-05-07 11:50 | NJDOT | 62 | 34 | 38 | 0 | |||||
| Piscataway 1 | NJ | 2026-05-07 11:40 | NJDOT | 62 | 33 | 34 | 0 | |||||
| Piscataway 1 | NJ | 2026-05-07 14:45 | NJDOT | 64 | 32 | 33 | 0 | |||||
| Piscataway 1 | NJ | 2026-05-07 10:20 | NJDOT | 57 | 38 | 48 | 0 | |||||
| Piscataway 1 | NJ | 2026-05-07 09:15 | NJDOT | 52 | 41 | 77 | 0 | |||||
| Piscataway 1 | NJ | 2026-05-07 09:20 | NJDOT | 54 | 41 | 71 | 0 | |||||
| Piscataway 1 | NJ | 2026-05-07 09:25 | NJDOT | 54 | 43 | 65 | 0 | |||||
| Piscataway 1 | NJ | 2026-05-07 09:30 | NJDOT | 54 | 44 | 69 | 0 | |||||
| Piscataway 1 | NJ | 2026-05-07 09:35 | NJDOT | 53 | 43 | 67 | 0 | |||||
| Piscataway 1 | NJ | 2026-05-07 09:40 | NJDOT | 55 | 42 | 64 | 0 | |||||
| Piscataway 1 | NJ | 2026-05-07 09:45 | NJDOT | 56 | 43 | 63 | 0 | |||||
| Piscataway 1 | NJ | 2026-05-07 09:50 | NJDOT | 55 | 41 | 60 | 0 | |||||
| Piscataway 1 | NJ | 2026-05-07 10:00 | NJDOT | 56 | 40 | 57 | 0 | |||||
| Piscataway 1 | NJ | 2026-05-07 10:05 | NJDOT | 56 | 41 | 57 | 0 | |||||
| Piscataway 1 | NJ | 2026-05-07 10:10 | NJDOT | 56 | 39 | 50 | 0 | |||||
| Piscataway 1 | NJ | 2026-05-07 10:15 | NJDOT | 56 | 39 | 51 | 0 | |||||
| Piscataway 1 | NJ | 2026-05-07 10:25 | NJDOT | 56 | 37 | 48 | 0 | |||||
| Piscataway 1 | NJ | 2026-05-07 11:35 | NJDOT | 60 | 35 | 39 | 0 | |||||
| Piscataway 1 | NJ | 2026-05-07 10:30 | NJDOT | 57 | 37 | 47 | 0 | |||||
| Piscataway 1 | NJ | 2026-05-07 10:35 | NJDOT | 58 | 39 | 49 | 0 | |||||
| Piscataway 1 | NJ | 2026-05-07 10:40 | NJDOT | 58 | 38 | 48 | 0 | |||||
| Piscataway 1 | NJ | 2026-05-07 10:45 | NJDOT | 58 | 39 | 48 | 0 | |||||
| Piscataway 1 | NJ | 2026-05-07 10:50 | NJDOT | 60 | 39 | 45 | 0 | |||||
| Piscataway 1 | NJ | 2026-05-07 11:00 | NJDOT | 59 | 36 | 42 | 0 | |||||
| Piscataway 1 | NJ | 2026-05-07 11:05 | NJDOT | 59 | 35 | 40 | 0 | |||||
| Piscataway 1 | NJ | 2026-05-07 11:10 | NJDOT | 60 | 38 | 42 | 0 | |||||
| Piscataway 1 | NJ | 2026-05-07 11:15 | NJDOT | 60 | 36 | 40 | 0 | |||||
| Piscataway 1 | NJ | 2026-05-07 11:20 | NJDOT | 60 | 35 | 38 | 0 | |||||
| Piscataway 1 | NJ | 2026-05-07 11:25 | NJDOT | 60 | 36 | 44 | 0 | |||||
| Piscataway 1 | NJ | 2026-05-07 11:30 | NJDOT | 61 | 36 | 40 | 0 | |||||
| Piscataway 1 | NJ | 2026-05-07 14:40 | NJDOT | 65 | 32 | 29 | 0 | |||||
| Piscataway 1 | NJ | 2026-05-07 14:50 | NJDOT | 66 | 33 | 30 | 0 | |||||
| Piscataway 1 | NJ | 2026-05-07 20:25 | NJDOT | 56 | 37 | 50 | 0 | |||||
| Piscataway 1 | NJ | 2026-05-07 19:10 | NJDOT | 63 | 33 | 33 | 0 | |||||
| Piscataway 1 | NJ | 2026-05-07 17:45 | NJDOT | 66 | 31 | 26 | 0 | |||||
| Piscataway 1 | NJ | 2026-05-07 17:50 | NJDOT | 67 | 33 | 27 | 0 | |||||
| Piscataway 1 | NJ | 2026-05-07 18:00 | NJDOT | 67 | 35 | 31 | 0 | |||||
| Piscataway 1 | NJ | 2026-05-07 18:05 | NJDOT | 67 | 34 | 28 | 0 | |||||
| Piscataway 1 | NJ | 2026-05-07 18:10 | NJDOT | 67 | 34 | 28 | 0 | |||||
| Piscataway 1 | NJ | 2026-05-07 18:15 | NJDOT | 67 | 31 | 25 | 0 | |||||
| Piscataway 1 | NJ | 2026-05-07 18:20 | NJDOT | 65 | 31 | 29 | 0 | |||||
| Piscataway 1 | NJ | 2026-05-07 18:25 | NJDOT | 65 | 32 | 30 | 0 | |||||
| Piscataway 1 | NJ | 2026-05-07 18:30 | NJDOT | 65 | 33 | 29 | 0 | |||||
| Piscataway 1 | NJ | 2026-05-07 18:40 | NJDOT | 65 | 31 | 27 | 0 | |||||
| Piscataway 1 | NJ | 2026-05-07 19:00 | NJDOT | 63 | 31 | 30 | 0 | |||||
| Piscataway 1 | NJ | 2026-05-07 19:05 | NJDOT | 63 | 33 | 36 | 0 | |||||
| Piscataway 1 | NJ | 2026-05-07 19:15 | NJDOT | 62 | 33 | 34 | 0 | |||||
| Piscataway 1 | NJ | 2026-05-07 17:35 | NJDOT | 68 | 32 | 28 | 0 | |||||
| Piscataway 1 | NJ | 2026-05-07 19:20 | NJDOT | 62 | 33 | 36 | 0 | |||||
| Piscataway 1 | NJ | 2026-05-07 19:25 | NJDOT | 61 | 34 | 35 | 0 | |||||
| Piscataway 1 | NJ | 2026-05-07 19:30 | NJDOT | 61 | 33 | 35 | 0 | |||||
| Piscataway 1 | NJ | 2026-05-07 19:35 | NJDOT | 60 | 33 | 35 | 0 | |||||
| Piscataway 1 | NJ | 2026-05-07 19:40 | NJDOT | 60 | 32 | 35 | 0 | |||||
| Piscataway 1 | NJ | 2026-05-07 19:45 | NJDOT | 59 | 32 | 35 | 0 | |||||
| Piscataway 1 | NJ | 2026-05-07 19:50 | NJDOT | 59 | 33 | 38 | 0 | |||||
| Piscataway 1 | NJ | 2026-05-07 20:00 | NJDOT | 58 | 33 | 39 | 0 | |||||
| Piscataway 1 | NJ | 2026-05-07 20:05 | NJDOT | 57 | 33 | 39 | 0 | |||||
| Piscataway 1 | NJ | 2026-05-07 20:10 | NJDOT | 57 | 35 | 43 | 0 | |||||
| Piscataway 1 | NJ | 2026-05-07 20:15 | NJDOT | 56 | 35 | 44 | 0 | |||||
| Piscataway 1 | NJ | 2026-05-07 20:20 | NJDOT | 56 | 37 | 48 | 0 | |||||
| Piscataway 1 | NJ | 2026-05-07 17:40 | NJDOT | 66 | 32 | 29 | 0 | |||||
| Piscataway 1 | NJ | 2026-05-07 17:30 | NJDOT | 68 | 31 | 25 | 0 | |||||
| Piscataway 1 | NJ | 2026-05-07 15:00 | NJDOT | 66 | 33 | 36 | 0 | |||||
| Piscataway 1 | NJ | 2026-05-07 16:10 | NJDOT | 68 | 33 | 27 | 0 | |||||
| Piscataway 1 | NJ | 2026-05-07 15:05 | NJDOT | 67 | 33 | 31 | 0 | |||||
| Piscataway 1 | NJ | 2026-05-07 15:10 | NJDOT | 66 | 33 | 28 | 0 | |||||
| Piscataway 1 | NJ | 2026-05-07 15:15 | NJDOT | 65 | 34 | 31 | 0 | |||||
| Piscataway 1 | NJ | 2026-05-07 15:20 | NJDOT | 67 | 35 | 30 | 0 | |||||
| Piscataway 1 | NJ | 2026-05-07 15:25 | NJDOT | 67 | 33 | 28 | 0 | |||||
| Piscataway 1 | NJ | 2026-05-07 15:30 | NJDOT | 66 | 34 | 30 | 0 | |||||
| Piscataway 1 | NJ | 2026-05-07 15:35 | NJDOT | 67 | 32 | 27 | 0 | |||||
| Piscataway 1 | NJ | 2026-05-07 15:40 | NJDOT | 66 | 34 | 30 | 0 | |||||
| Piscataway 1 | NJ | 2026-05-07 15:45 | NJDOT | 66 | 32 | 28 | 0 | |||||
| Piscataway 1 | NJ | 2026-05-07 15:50 | NJDOT | 66 | 33 | 29 | 0 | |||||
| Piscataway 1 | NJ | 2026-05-07 16:00 | NJDOT | 67 | 33 | 28 | 0 | |||||
| Piscataway 1 | NJ | 2026-05-07 16:05 | NJDOT | 66 | 33 | 29 | 0 | |||||
| Piscataway 1 | NJ | 2026-05-07 16:15 | NJDOT | 69 | 33 | 26 | 0 | |||||
| Piscataway 1 | NJ | 2026-05-07 17:25 | NJDOT | 68 | 31 | 24 | 0 | |||||
| Piscataway 1 | NJ | 2026-05-07 16:20 | NJDOT | 69 | 33 | 26 | 0 | |||||
| Piscataway 1 | NJ | 2026-05-07 16:25 | NJDOT | 68 | 32 | 26 | 0 | |||||
| Piscataway 1 | NJ | 2026-05-07 16:30 | NJDOT | 67 | 30 | 25 | 0 | |||||
| Piscataway 1 | NJ | 2026-05-07 16:35 | NJDOT | 67 | 33 | 27 | 0 | |||||
| Piscataway 1 | NJ | 2026-05-07 16:40 | NJDOT | 65 | 33 | 30 | 0 | |||||
| Piscataway 1 | NJ | 2026-05-07 16:45 | NJDOT | 66 | 34 | 30 | 0 | |||||
| Piscataway 1 | NJ | 2026-05-07 16:50 | NJDOT | 65 | 32 | 24 | 0 | |||||
| Piscataway 1 | NJ | 2026-05-07 17:00 | NJDOT | 67 | 34 | 29 | 0 | |||||
| Piscataway 1 | NJ | 2026-05-07 17:05 | NJDOT | 67 | 34 | 29 | 0 | |||||
| Piscataway 1 | NJ | 2026-05-07 17:10 | NJDOT | 67 | 36 | 31 | 0 | |||||
| Piscataway 1 | NJ | 2026-05-07 17:15 | NJDOT | 67 | 32 | 26 | 0 | |||||
| Piscataway 1 | NJ | 2026-05-07 17:20 | NJDOT | 67 | 32 | 32 | 0 | |||||
| Piscataway 1 | NJ | 2026-05-08 09:00 | NJDOT | 54 | 41 | 62 | 5 |
data collection created in 0.030892848968506 (queried in 0.007530) rendered in: 0.00033116340637207

